Time;durP1;ratioP1;P1;durP2;ratioP2;P2;SDS_P1;SDS_P2;PMS_P1;PMS_P2;Temp;Humidity;BMP_temperature;BMP_pressure;BME280_temperature;BME280_humidity;BME280_pressure;Samples;Min_cycle;Max_cycle;Signal;HPM_P1;HPM_P2
2023/05/23 00:00:44;;;;;;;14.03;6.83;;;17.90;80.90;;;;;;5028191;28;20025;-79
2023/05/23 00:03:12;;;;;;;16.03;7.13;;;17.90;80.80;;;;;;5026268;28;20711;-79
2023/05/23 00:05:38;;;;;;;13.88;6.78;;;17.90;80.80;;;;;;4996679;28;20037;-79
2023/05/23 00:08:03;;;;;;;11.63;6.17;;;17.80;80.80;;;;;;5031025;28;20060;-79
2023/05/23 00:10:29;;;;;;;10.82;6.15;;;17.80;80.90;;;;;;5024795;28;20313;-79
2023/05/23 00:12:56;;;;;;;12.63;6.33;;;17.80;80.90;;;;;;5040254;28;20025;-79
2023/05/23 00:15:23;;;;;;;13.63;6.68;;;17.80;80.90;;;;;;5014627;28;20021;-79
2023/05/23 00:17:50;;;;;;;13.38;6.47;;;17.80;81.10;;;;;;5023891;28;20611;-79
2023/05/23 00:20:15;;;;;;;11.57;6.22;;;17.70;80.90;;;;;;5031128;28;20044;-79
2023/05/23 00:22:41;;;;;;;11.60;6.20;;;17.70;80.90;;;;;;5017513;28;20252;-79
2023/05/23 00:25:10;;;;;;;12.38;5.75;;;17.70;81.00;;;;;;5028765;28;20036;-79
2023/05/23 00:27:36;;;;;;;12.27;6.05;;;17.60;81.40;;;;;;5034379;28;20025;-80
2023/05/23 00:30:02;;;;;;;10.88;6.20;;;17.60;81.20;;;;;;5028494;28;20037;-79
2023/05/23 00:32:28;;;;;;;11.43;5.93;;;17.60;81.30;;;;;;5024665;28;20033;-79
2023/05/23 00:34:57;;;;;;;11.15;6.13;;;17.60;81.40;;;;;;5035964;28;20040;-79
2023/05/23 00:37:22;;;;;;;11.40;6.10;;;17.60;81.60;;;;;;4997867;28;20037;-79
2023/05/23 00:39:48;;;;;;;13.80;6.13;;;17.60;81.70;;;;;;5036317;28;20425;-79
2023/05/23 00:42:14;;;;;;;12.20;5.95;;;17.60;81.80;;;;;;5036304;28;20394;-79
2023/05/23 00:44:40;;;;;;;11.90;6.43;;;17.60;81.80;;;;;;5030681;28;20265;-79
2023/05/23 00:47:06;;;;;;;12.60;6.00;;;17.60;82.00;;;;;;5032919;28;20029;-79
2023/05/23 00:49:33;;;;;;;11.93;5.97;;;17.60;82.20;;;;;;5027583;28;20051;-79
2023/05/23 00:51:59;;;;;;;11.57;6.07;;;17.60;82.20;;;;;;5003379;28;20638;-79
2023/05/23 00:54:32;;;;;;;10.55;5.82;;;17.60;82.30;;;;;;5026810;28;20414;-80
2023/05/23 00:56:58;;;;;;;11.20;5.25;;;17.60;82.70;;;;;;5031458;28;20315;-80
2023/05/23 00:59:25;;;;;;;11.17;5.40;;;17.60;82.30;;;;;;5025354;28;20033;-79
2023/05/23 01:01:53;;;;;;;10.60;5.00;;;17.60;82.30;;;;;;5021579;28;20048;-79
2023/05/23 01:04:19;;;;;;;9.02;5.35;;;17.60;82.50;;;;;;5024261;28;20107;-80
2023/05/23 01:06:47;;;;;;;7.90;4.57;;;17.60;82.40;;;;;;5022181;28;20127;-80
2023/05/23 01:09:15;;;;;;;8.77;4.72;;;17.70;82.60;;;;;;5018820;28;20028;-81
2023/05/23 01:12:00;;;;;;;8.03;4.63;;;17.70;82.60;;;;;;5030271;28;20036;-79
2023/05/23 01:14:41;;;;;;;9.35;4.80;;;17.60;83.50;;;;;;5035352;28;20029;-79
2023/05/23 01:17:15;;;;;;;8.65;5.10;;;17.70;83.40;;;;;;5027988;28;20029;-81
2023/05/23 01:19:53;;;;;;;7.38;4.90;;;17.70;82.90;;;;;;5048094;28;20033;-79
2023/05/23 01:23:02;;;;;;;8.20;4.95;;;17.70;83.30;;;;;;5021391;28;20029;-79
2023/05/23 01:25:52;;;;;;;8.57;5.20;;;17.70;83.90;;;;;;4922730;28;20342;-79
2023/05/23 01:28:25;;;;;;;8.63;5.45;;;17.70;83.60;;;;;;4906313;29;20039;-79
2023/05/23 01:30:55;;;;;;;9.52;5.63;;;17.70;82.90;;;;;;4932062;29;20390;-79
2023/05/23 01:33:22;;;;;;;7.43;4.93;;;17.60;82.70;;;;;;4924263;28;20429;-79
2023/05/23 01:35:49;;;;;;;10.18;5.78;;;17.60;82.80;;;;;;4932715;28;20761;-80
2023/05/23 01:38:15;;;;;;;10.10;5.63;;;17.60;82.70;;;;;;4911240;28;20710;-79
2023/05/23 01:40:41;;;;;;;10.77;5.32;;;17.60;82.70;;;;;;4905360;29;20560;-80
2023/05/23 01:43:07;;;;;;;10.07;5.70;;;17.60;82.80;;;;;;4932222;28;20039;-79
2023/05/23 01:45:33;;;;;;;9.67;5.63;;;17.60;82.80;;;;;;4928337;28;20027;-79
2023/05/23 01:48:01;;;;;;;7.45;5.03;;;17.60;83.00;;;;;;4902844;29;20126;-79
2023/05/23 01:50:27;;;;;;;7.80;4.97;;;17.60;83.00;;;;;;4935493;28;20414;-79
2023/05/23 01:52:55;;;;;;;7.82;4.88;;;17.60;82.70;;;;;;4889412;28;20043;-80
2023/05/23 01:55:23;;;;;;;8.60;4.90;;;17.60;82.70;;;;;;4904953;29;20472;-79
2023/05/23 01:57:54;;;;;;;6.93;4.23;;;17.50;82.70;;;;;;4925127;28;20732;-80
2023/05/23 02:00:20;;;;;;;6.80;4.10;;;17.50;82.90;;;;;;4930898;28;20035;-79
2023/05/23 02:02:46;;;;;;;6.97;4.07;;;17.50;82.60;;;;;;4950361;28;20187;-79
2023/05/23 02:05:12;;;;;;;7.05;4.20;;;17.50;82.70;;;;;;5035686;28;20032;-80
2023/05/23 02:07:38;;;;;;;8.10;3.90;;;17.40;82.60;;;;;;5034065;28;20335;-79
2023/05/23 02:10:09;;;;;;;7.63;4.18;;;17.40;82.70;;;;;;5024446;28;20145;-80
2023/05/23 02:12:34;;;;;;;6.25;4.00;;;17.30;82.80;;;;;;5024206;28;20033;-79
2023/05/23 02:15:00;;;;;;;7.40;4.37;;;17.40;82.90;;;;;;5033155;28;20032;-80
2023/05/23 02:17:26;;;;;;;7.40;4.17;;;17.30;82.90;;;;;;5028962;28;20287;-80
2023/05/23 02:19:52;;;;;;;7.65;4.28;;;17.40;83.10;;;;;;5030631;28;20106;-81
2023/05/23 02:22:23;;;;;;;7.25;4.57;;;17.30;83.10;;;;;;5034296;28;20067;-78
2023/05/23 02:24:49;;;;;;;7.43;4.30;;;17.30;83.50;;;;;;5009786;28;20273;-79
2023/05/23 02:27:15;;;;;;;6.97;4.07;;;17.30;83.20;;;;;;5026677;28;20600;-79
2023/05/23 02:29:40;;;;;;;7.00;4.03;;;17.30;83.30;;;;;;5031532;28;20067;-80
2023/05/23 02:32:06;;;;;;;8.80;4.27;;;17.30;83.40;;;;;;5031445;28;20055;-80
2023/05/23 02:34:32;;;;;;;8.55;4.32;;;17.30;83.40;;;;;;5025901;28;20433;-79
2023/05/23 02:36:58;;;;;;;6.68;4.30;;;17.30;83.30;;;;;;5035307;28;20578;-79
2023/05/23 02:39:24;;;;;;;6.77;4.23;;;17.30;83.40;;;;;;5046162;28;20030;-79
2023/05/23 02:41:50;;;;;;;7.28;4.10;;;17.30;83.40;;;;;;4994727;28;20029;-80
2023/05/23 02:44:18;;;;;;;7.90;4.53;;;17.30;83.30;;;;;;5040876;28;20025;-80
2023/05/23 02:46:44;;;;;;;10.13;4.87;;;17.20;83.40;;;;;;5033108;28;20016;-78
2023/05/23 02:49:11;;;;;;;8.75;4.93;;;17.20;83.30;;;;;;5041661;28;20451;-79
2023/05/23 02:51:37;;;;;;;8.20;4.82;;;17.20;83.50;;;;;;5035698;28;20263;-79
2023/05/23 02:54:02;;;;;;;7.22;4.47;;;17.10;83.60;;;;;;5033814;28;20037;-79
2023/05/23 02:56:28;;;;;;;8.97;4.87;;;17.10;83.60;;;;;;5010271;28;20035;-79
2023/05/23 02:58:54;;;;;;;7.68;4.68;;;17.10;83.80;;;;;;5026797;28;20291;-79
2023/05/23 03:01:20;;;;;;;8.85;5.07;;;17.00;83.80;;;;;;5051254;28;20076;-80
2023/05/23 03:03:46;;;;;;;9.57;5.43;;;17.00;83.90;;;;;;5024830;28;20532;-79
2023/05/23 03:06:13;;;;;;;8.40;5.07;;;17.00;83.90;;;;;;5038208;28;20016;-80
2023/05/23 03:08:42;;;;;;;8.85;5.45;;;17.00;83.80;;;;;;5024664;28;20115;-79
2023/05/23 03:11:08;;;;;;;9.27;5.60;;;17.00;84.10;;;;;;5042370;28;20025;-79
2023/05/23 03:13:34;;;;;;;10.25;5.82;;;17.00;83.90;;;;;;5009078;28;20037;-79
2023/05/23 03:16:00;;;;;;;9.35;5.78;;;16.90;84.00;;;;;;5041675;28;20151;-82
2023/05/23 03:18:26;;;;;;;9.43;5.88;;;16.90;83.90;;;;;;5026955;28;20784;-80
2023/05/23 03:20:52;;;;;;;10.47;6.00;;;16.90;84.00;;;;;;5014245;28;20200;-77
2023/05/23 03:23:18;;;;;;;12.57;5.93;;;16.90;84.00;;;;;;5030781;28;20100;-78
2023/05/23 03:25:43;;;;;;;9.77;5.65;;;16.90;84.00;;;;;;5027004;28;20770;-78
2023/05/23 03:28:11;;;;;;;11.80;6.00;;;16.90;84.00;;;;;;5003300;28;20039;-78
2023/05/23 03:30:37;;;;;;;10.13;5.85;;;16.90;84.10;;;;;;5012168;28;20375;-77
2023/05/23 03:33:03;;;;;;;10.77;5.82;;;16.90;84.20;;;;;;5031518;28;20482;-78
2023/05/23 03:35:29;;;;;;;9.35;5.43;;;16.80;84.10;;;;;;5014195;28;20025;-79
2023/05/23 03:37:54;;;;;;;8.50;4.80;;;16.80;84.20;;;;;;5025225;28;20122;-78
2023/05/23 03:40:20;;;;;;;7.57;4.18;;;16.80;84.20;;;;;;5030044;28;20167;-78
2023/05/23 03:42:48;;;;;;;8.25;4.22;;;16.80;84.10;;;;;;5027881;28;20120;-78
2023/05/23 03:45:14;;;;;;;8.95;4.22;;;16.80;84.20;;;;;;4995095;28;20498;-77
2023/05/23 03:47:41;;;;;;;7.97;3.73;;;16.80;84.10;;;;;;5026765;28;20205;-77
2023/05/23 03:50:07;;;;;;;6.32;3.55;;;16.80;84.20;;;;;;5013302;28;20056;-79
2023/05/23 03:52:33;;;;;;;7.20;3.65;;;16.70;84.20;;;;;;5012710;28;21236;-78
2023/05/23 03:54:59;;;;;;;6.15;3.60;;;16.70;84.40;;;;;;5009660;28;20028;-77
2023/05/23 03:57:27;;;;;;;5.97;3.20;;;16.70;84.20;;;;;;5025423;28;20041;-77
2023/05/23 03:59:53;;;;;;;5.68;3.33;;;16.70;84.20;;;;;;4996164;28;20064;-77
2023/05/23 04:02:18;;;;;;;6.43;3.40;;;16.70;84.20;;;;;;5028682;28;20442;-80
2023/05/23 04:04:45;;;;;;;5.10;3.08;;;16.70;84.50;;;;;;5040746;28;20733;-80
2023/05/23 04:07:11;;;;;;;5.25;3.25;;;16.70;84.60;;;;;;5033596;28;20036;-80
2023/05/23 04:09:37;;;;;;;5.43;3.03;;;16.70;84.70;;;;;;5029780;28;20809;-80
2023/05/23 04:12:03;;;;;;;5.22;3.22;;;16.70;84.90;;;;;;5027574;28;20448;-80
2023/05/23 04:14:28;;;;;;;5.40;3.07;;;16.70;84.90;;;;;;5027439;28;20145;-79
2023/05/23 04:16:54;;;;;;;5.68;3.10;;;16.70;85.00;;;;;;5025654;28;20143;-78
2023/05/23 04:19:20;;;;;;;5.30;3.05;;;16.70;85.00;;;;;;5032458;28;20510;-78
2023/05/23 04:21:46;;;;;;;4.83;2.90;;;16.80;85.00;;;;;;5014270;28;20730;-78
2023/05/23 04:24:12;;;;;;;5.95;3.08;;;16.80;84.90;;;;;;5042569;28;20021;-78
2023/05/23 04:26:38;;;;;;;4.13;2.47;;;16.80;84.90;;;;;;5039583;28;20136;-78
2023/05/23 04:29:04;;;;;;;4.80;3.13;;;16.90;85.00;;;;;;5028210;28;20032;-78
2023/05/23 04:31:30;;;;;;;5.10;3.10;;;16.90;85.00;;;;;;4998942;28;20044;-78
2023/05/23 04:33:56;;;;;;;4.97;3.03;;;16.90;85.00;;;;;;5030040;28;20091;-79
2023/05/23 04:36:22;;;;;;;5.45;2.95;;;16.90;85.00;;;;;;5017163;28;20026;-78
2023/05/23 04:38:48;;;;;;;4.93;3.20;;;16.90;85.00;;;;;;5033999;28;20083;-79
2023/05/23 04:41:15;;;;;;;3.88;2.80;;;16.90;85.00;;;;;;5050687;28;20136;-78
2023/05/23 04:43:41;;;;;;;5.87;2.90;;;17.00;85.10;;;;;;5031595;28;20269;-78
2023/05/23 04:46:09;;;;;;;4.90;2.78;;;17.00;85.10;;;;;;5030103;28;20075;-79
2023/05/23 04:48:36;;;;;;;5.47;2.78;;;17.00;85.10;;;;;;5035574;28;20108;-78
2023/05/23 04:51:05;;;;;;;5.00;3.13;;;17.00;85.10;;;;;;5024447;28;20087;-77
2023/05/23 04:53:31;;;;;;;5.43;2.88;;;17.00;85.10;;;;;;5034822;28;20041;-78
2023/05/23 04:55:57;;;;;;;4.80;2.67;;;17.00;85.10;;;;;;5018627;28;20025;-77
2023/05/23 04:58:23;;;;;;;5.32;2.80;;;17.00;85.00;;;;;;5035278;28;20025;-78
2023/05/23 05:00:48;;;;;;;4.90;2.97;;;17.10;85.10;;;;;;5017452;28;20418;-78
2023/05/23 05:03:15;;;;;;;4.95;3.28;;;17.10;85.10;;;;;;5004715;28;20407;-78
2023/05/23 05:05:40;;;;;;;5.68;3.10;;;17.00;85.00;;;;;;5033656;28;20025;-77
2023/05/23 05:08:06;;;;;;;7.17;3.63;;;17.00;85.00;;;;;;5017929;28;20116;-78
2023/05/23 05:10:32;;;;;;;5.63;3.75;;;17.10;85.10;;;;;;5035899;28;20060;-78
2023/05/23 05:12:57;;;;;;;9.03;4.30;;;17.00;85.00;;;;;;5032536;28;20055;-79
2023/05/23 05:15:26;;;;;;;8.00;4.07;;;17.10;85.10;;;;;;5029283;28;20662;-77
2023/05/23 05:17:52;;;;;;;9.18;4.45;;;17.00;85.00;;;;;;5003904;28;20029;-78
2023/05/23 05:20:18;;;;;;;7.37;3.90;;;17.00;85.00;;;;;;5030615;28;20242;-78
2023/05/23 05:22:44;;;;;;;7.95;3.80;;;17.00;85.00;;;;;;5019143;28;20025;-78
2023/05/23 05:25:10;;;;;;;10.43;4.40;;;17.10;85.20;;;;;;5025425;28;20162;-78
2023/05/23 05:27:38;;;;;;;7.37;3.83;;;17.10;85.20;;;;;;5030106;28;20037;-77
2023/05/23 05:30:08;;;;;;;7.78;4.05;;;17.10;85.20;;;;;;5031116;28;20032;-79
2023/05/23 05:32:34;;;;;;;9.25;4.03;;;17.10;85.30;;;;;;5034558;28;20072;-79
2023/05/23 05:35:00;;;;;;;8.52;4.32;;;17.10;85.00;;;;;;5001851;28;20111;-78
2023/05/23 05:37:26;;;;;;;7.18;4.30;;;17.00;84.90;;;;;;5012823;28;20041;-78
2023/05/23 05:39:53;;;;;;;9.03;4.57;;;17.10;85.00;;;;;;5030675;28;20036;-77
2023/05/23 05:42:20;;;;;;;8.90;4.50;;;17.00;85.00;;;;;;5030608;28;20024;-77
2023/05/23 05:44:46;;;;;;;7.35;4.05;;;17.00;85.60;;;;;;5030369;28;20094;-79
2023/05/23 05:47:13;;;;;;;9.80;4.53;;;17.10;85.00;;;;;;5027025;28;20509;-77
2023/05/23 05:49:39;;;;;;;8.60;4.15;;;17.00;85.00;;;;;;5018048;28;20357;-78
2023/05/23 05:52:08;;;;;;;9.97;4.40;;;17.00;84.90;;;;;;5030196;28;20480;-78
2023/05/23 05:54:34;;;;;;;8.20;4.15;;;17.00;85.10;;;;;;4997678;28;20053;-78
2023/05/23 05:57:00;;;;;;;8.95;4.20;;;17.00;85.00;;;;;;5027497;28;20029;-78
2023/05/23 05:59:26;;;;;;;8.77;4.00;;;17.00;85.00;;;;;;5031172;28;20520;-77
2023/05/23 06:01:52;;;;;;;10.73;4.40;;;17.00;85.00;;;;;;5030720;28;20060;-79
2023/05/23 06:04:18;;;;;;;8.13;3.83;;;17.00;85.00;;;;;;4999015;28;21976;-78
2023/05/23 06:06:44;;;;;;;10.30;3.95;;;17.10;85.10;;;;;;5029398;28;20030;-78
2023/05/23 06:09:10;;;;;;;9.20;3.93;;;17.10;85.10;;;;;;5008174;28;20020;-78
2023/05/23 06:11:39;;;;;;;8.93;4.28;;;17.10;85.00;;;;;;5032164;28;20657;-78
2023/05/23 06:14:06;;;;;;;10.00;4.25;;;17.20;85.00;;;;;;5022703;28;20057;-78
2023/05/23 06:16:32;;;;;;;7.57;3.70;;;17.10;84.80;;;;;;5029333;28;20040;-78
2023/05/23 06:18:58;;;;;;;9.75;4.00;;;17.10;84.60;;;;;;5026207;28;20108;-78
2023/05/23 06:21:24;;;;;;;7.43;3.72;;;17.10;84.60;;;;;;5015542;28;20603;-78
2023/05/23 06:23:50;;;;;;;6.83;3.60;;;17.10;84.50;;;;;;5033891;28;20542;-78
2023/05/23 06:26:15;;;;;;;9.67;4.10;;;17.10;84.60;;;;;;5016913;28;20469;-77
2023/05/23 06:28:41;;;;;;;7.07;3.67;;;17.10;84.70;;;;;;5031536;28;20290;-78
2023/05/23 06:31:08;;;;;;;8.23;3.70;;;17.10;84.70;;;;;;5042146;28;20093;-78
2023/05/23 06:33:35;;;;;;;6.57;3.20;;;17.10;84.80;;;;;;5033543;28;20044;-77
2023/05/23 06:36:00;;;;;;;6.22;3.53;;;17.10;85.00;;;;;;5001259;28;20033;-77
2023/05/23 06:38:30;;;;;;;5.93;3.07;;;17.20;85.10;;;;;;5067063;28;20025;-78
2023/05/23 06:40:55;;;;;;;5.28;3.05;;;17.20;85.10;;;;;;5014904;28;20026;-78
2023/05/23 06:43:21;;;;;;;5.78;2.53;;;17.30;85.00;;;;;;5029327;28;20029;-78
2023/05/23 06:45:47;;;;;;;5.03;2.57;;;17.30;84.80;;;;;;5034592;28;21503;-78
2023/05/23 06:48:13;;;;;;;5.75;2.65;;;17.30;84.70;;;;;;5030005;28;20388;-79
2023/05/23 06:50:40;;;;;;;5.77;2.27;;;17.40;84.50;;;;;;5023614;28;20087;-79
2023/05/23 06:53:05;;;;;;;4.75;2.30;;;17.40;84.30;;;;;;5031086;28;20482;-77
2023/05/23 06:55:32;;;;;;;5.15;2.30;;;17.50;84.10;;;;;;5053004;28;20041;-79
2023/05/23 06:57:59;;;;;;;4.40;2.20;;;17.50;83.50;;;;;;5014992;28;20029;-78
2023/05/23 07:00:25;;;;;;;3.80;2.10;;;17.50;83.30;;;;;;5033961;28;20937;-78
2023/05/23 07:02:51;;;;;;;4.82;2.22;;;17.50;82.80;;;;;;5015125;28;20363;-79
2023/05/23 07:05:17;;;;;;;4.95;2.33;;;17.50;82.20;;;;;;5007478;28;20031;-78
2023/05/23 07:07:43;;;;;;;4.23;1.80;;;17.40;81.90;;;;;;5054595;28;20107;-78
2023/05/23 07:10:09;;;;;;;5.00;2.15;;;17.40;82.20;;;;;;5024794;28;20266;-78
2023/05/23 07:12:35;;;;;;;4.32;1.90;;;17.40;82.10;;;;;;5030472;28;20426;-77
2023/05/23 07:15:01;;;;;;;7.30;2.30;;;17.40;82.20;;;;;;5013738;28;20037;-78
2023/05/23 07:17:29;;;;;;;5.87;2.57;;;17.40;82.00;;;;;;5046592;28;20013;-78
2023/05/23 07:19:55;;;;;;;6.32;2.53;;;17.50;82.40;;;;;;5019432;28;20033;-79
2023/05/23 07:22:21;;;;;;;5.90;2.30;;;17.60;82.40;;;;;;5025375;28;20489;-78
2023/05/23 07:24:47;;;;;;;7.03;2.30;;;17.60;82.50;;;;;;5035564;28;20025;-80
2023/05/23 07:27:13;;;;;;;5.10;2.03;;;17.70;82.80;;;;;;5013431;28;20179;-78
2023/05/23 07:29:38;;;;;;;6.15;2.30;;;17.80;82.90;;;;;;5041714;28;20097;-79
2023/05/23 07:32:05;;;;;;;4.72;2.30;;;18.00;82.40;;;;;;5029709;28;20086;-78
2023/05/23 07:34:31;;;;;;;5.13;2.28;;;18.10;82.60;;;;;;5020604;28;20044;-79
2023/05/23 07:36:57;;;;;;;5.67;2.60;;;18.20;83.00;;;;;;5006054;28;20059;-78
2023/05/23 07:39:23;;;;;;;4.55;2.30;;;18.40;83.00;;;;;;5033946;28;20206;-78
2023/05/23 07:41:49;;;;;;;4.40;2.05;;;18.70;83.40;;;;;;5036596;28;20437;-77
2023/05/23 07:44:17;;;;;;;4.05;2.13;;;18.90;83.00;;;;;;5025185;28;20143;-77
2023/05/23 07:46:43;;;;;;;5.23;2.37;;;19.10;82.40;;;;;;5018624;28;20009;-78
2023/05/23 07:49:09;;;;;;;5.72;2.17;;;19.20;81.40;;;;;;5015499;28;21421;-79
2023/05/23 07:51:35;;;;;;;5.93;2.25;;;19.30;81.60;;;;;;5015615;28;20463;-78
2023/05/23 07:54:01;;;;;;;4.10;2.17;;;19.40;82.50;;;;;;5035206;28;20041;-78
2023/05/23 07:56:27;;;;;;;4.10;2.00;;;19.60;83.50;;;;;;5050825;28;20571;-77
2023/05/23 07:58:53;;;;;;;4.40;2.28;;;19.90;84.40;;;;;;5047306;28;20095;-78
2023/05/23 08:01:19;;;;;;;4.63;2.17;;;20.30;84.40;;;;;;5024113;28;20668;-78
2023/05/23 08:03:45;;;;;;;4.73;2.60;;;20.70;84.00;;;;;;5033805;28;20037;-78
2023/05/23 08:06:11;;;;;;;4.32;2.35;;;21.10;83.30;;;;;;5013864;28;20498;-79
2023/05/23 08:08:37;;;;;;;5.30;2.50;;;21.40;83.10;;;;;;5010829;28;20126;-79
2023/05/23 08:11:03;;;;;;;7.23;3.10;;;21.80;82.80;;;;;;5031292;28;20082;-79
2023/05/23 08:13:30;;;;;;;4.30;2.40;;;22.10;81.20;;;;;;5036285;28;20482;-78
2023/05/23 08:15:56;;;;;;;6.30;2.85;;;22.40;80.50;;;;;;5015195;28;20029;-78
2023/05/23 08:18:22;;;;;;;4.70;2.90;;;22.70;79.60;;;;;;5046527;28;20033;-78
2023/05/23 08:20:47;;;;;;;5.23;2.70;;;22.90;78.70;;;;;;5017429;28;20116;-79
2023/05/23 08:23:13;;;;;;;6.18;2.70;;;23.00;77.50;;;;;;5025655;28;26784;-79
2023/05/23 08:25:39;;;;;;;6.28;2.70;;;23.00;75.90;;;;;;5037096;28;20017;-79
2023/05/23 08:28:05;;;;;;;6.97;3.00;;;22.90;74.30;;;;;;5030473;28;20221;-78
2023/05/23 08:30:32;;;;;;;6.22;2.70;;;22.70;72.70;;;;;;5035253;28;20025;-78
2023/05/23 08:32:59;;;;;;;5.90;2.90;;;22.40;71.90;;;;;;5022520;28;20065;-80
2023/05/23 08:35:28;;;;;;;6.10;2.60;;;22.10;72.00;;;;;;5018412;28;20029;-78
2023/05/23 08:37:56;;;;;;;4.97;2.40;;;21.90;72.30;;;;;;5019687;28;20052;-78
2023/05/23 08:40:25;;;;;;;7.00;2.80;;;21.70;73.00;;;;;;5041978;28;20041;-78
2023/05/23 08:42:51;;;;;;;7.00;2.65;;;21.50;73.00;;;;;;5042635;28;20024;-78
2023/05/23 08:45:18;;;;;;;5.72;2.17;;;21.30;73.20;;;;;;5055448;28;20379;-80
2023/05/23 08:47:45;;;;;;;6.23;2.60;;;21.20;73.40;;;;;;5030957;28;20110;-78
2023/05/23 08:50:15;;;;;;;5.25;2.53;;;21.20;73.00;;;;;;5035027;28;20037;-78
2023/05/23 08:52:51;;;;;;;5.03;2.40;;;21.10;72.40;;;;;;5023731;28;20036;-78
2023/05/23 08:55:17;;;;;;;7.00;2.20;;;21.00;72.20;;;;;;5013804;28;20139;-79
2023/05/23 08:57:44;;;;;;;4.68;2.05;;;20.90;73.40;;;;;;5037734;28;20440;-80
2023/05/23 09:00:14;;;;;;;4.73;2.30;;;20.90;73.40;;;;;;5039793;28;20386;-78
2023/05/23 09:02:43;;;;;;;5.20;2.20;;;20.90;72.70;;;;;;5033169;28;20033;-79
2023/05/23 09:05:09;;;;;;;3.25;2.00;;;20.80;72.40;;;;;;5038328;28;20372;-78
2023/05/23 09:07:36;;;;;;;3.15;1.63;;;20.70;72.60;;;;;;5024057;28;20053;-77
2023/05/23 09:10:04;;;;;;;3.90;1.80;;;20.70;72.70;;;;;;5009971;28;20043;-77
2023/05/23 09:12:32;;;;;;;4.93;2.00;;;20.60;72.60;;;;;;5040053;28;20561;-78
2023/05/23 09:14:58;;;;;;;4.28;1.92;;;20.50;72.50;;;;;;5043067;28;20741;-77
2023/05/23 09:17:24;;;;;;;4.45;2.08;;;20.40;72.50;;;;;;5027945;28;20029;-77
2023/05/23 09:19:50;;;;;;;4.20;2.13;;;20.40;72.80;;;;;;5045571;28;20040;-78
2023/05/23 09:22:22;;;;;;;4.50;1.92;;;20.30;72.70;;;;;;5035437;28;20568;-78
2023/05/23 09:24:50;;;;;;;3.53;1.90;;;20.20;72.80;;;;;;5016996;28;20522;-79
2023/05/23 09:27:16;;;;;;;4.40;1.80;;;20.20;73.00;;;;;;5019863;28;20277;-79
2023/05/23 09:29:42;;;;;;;4.77;1.93;;;20.20;73.10;;;;;;5039129;28;20453;-79
2023/05/23 09:32:11;;;;;;;3.33;1.80;;;20.20;73.10;;;;;;5033912;28;20549;-78
2023/05/23 09:34:58;;;;;;;3.53;1.90;;;20.20;72.80;;;;;;5030539;28;20167;-80
2023/05/23 09:37:30;;;;;;;3.38;2.03;;;20.20;72.80;;;;;;5053497;28;20029;-78
2023/05/23 09:39:57;;;;;;;3.20;1.63;;;20.20;73.20;;;;;;5018598;28;20483;-79
2023/05/23 09:42:23;;;;;;;5.28;2.20;;;20.20;73.60;;;;;;5013479;28;20158;-77
2023/05/23 09:44:49;;;;;;;4.28;1.80;;;20.20;73.30;;;;;;5038137;28;20025;-80
2023/05/23 09:47:16;;;;;;;4.75;1.80;;;20.20;73.00;;;;;;5051784;28;20122;-77
2023/05/23 09:49:46;;;;;;;6.50;1.90;;;20.20;72.80;;;;;;5027167;28;20040;-77
2023/05/23 09:52:12;;;;;;;3.63;1.80;;;20.10;73.00;;;;;;5050112;28;20055;-78
2023/05/23 09:54:39;;;;;;;3.72;1.70;;;20.10;73.30;;;;;;5020696;28;20045;-77
2023/05/23 09:57:08;;;;;;;4.90;1.80;;;20.10;73.10;;;;;;5011148;28;20028;-79
2023/05/23 09:59:38;;;;;;;4.05;1.80;;;20.10;73.20;;;;;;5039386;28;20081;-80
2023/05/23 10:02:13;;;;;;;4.40;1.88;;;20.20;73.70;;;;;;5032901;28;20151;-78
2023/05/23 10:04:40;;;;;;;4.30;1.80;;;20.30;74.10;;;;;;5050504;28;20061;-77
2023/05/23 10:07:26;;;;;;;2.47;1.50;;;20.40;74.50;;;;;;5024367;28;20052;-77
2023/05/23 10:09:59;;;;;;;2.88;1.60;;;20.60;73.30;;;;;;5020850;28;20028;-78
2023/05/23 10:12:31;;;;;;;2.97;1.50;;;20.70;73.60;;;;;;5012864;28;20044;-78
2023/05/23 10:15:02;;;;;;;2.40;1.60;;;20.80;73.20;;;;;;5032782;28;20033;-78
2023/05/23 10:18:00;;;;;;;3.10;1.60;;;20.80;73.10;;;;;;5034443;28;20440;-77
2023/05/23 10:20:32;;;;;;;2.60;1.60;;;20.80;71.70;;;;;;5026058;28;20067;-78
2023/05/23 10:23:03;;;;;;;2.38;1.52;;;20.80;71.60;;;;;;5035697;28;20473;-79
2023/05/23 10:25:29;;;;;;;3.45;1.50;;;20.70;71.50;;;;;;5018567;28;20033;-79
2023/05/23 10:27:58;;;;;;;3.67;1.65;;;20.70;72.00;;;;;;5031324;28;20120;-80
2023/05/23 10:30:27;;;;;;;5.17;1.57;;;20.60;72.10;;;;;;5037109;28;20528;-79
2023/05/23 10:32:55;;;;;;;3.58;1.70;;;20.60;72.10;;;;;;5053800;28;20382;-79
2023/05/23 10:35:34;;;;;;;2.95;1.50;;;20.60;73.40;;;;;;5023310;28;20513;-78
2023/05/23 10:38:39;;;;;;;3.90;1.60;;;20.80;75.00;;;;;;5050234;28;20029;-78
2023/05/23 10:41:10;;;;;;;3.08;1.67;;;21.30;76.30;;;;;;5036084;28;20764;-79
2023/05/23 10:44:08;;;;;;;3.00;1.67;;;21.90;78.60;;;;;;5011497;28;20017;-79
2023/05/23 10:46:56;;;;;;;3.25;1.73;;;22.60;75.00;;;;;;5037868;28;20159;-79
2023/05/23 10:49:37;;;;;;;3.50;1.63;;;23.20;73.60;;;;;;5037854;28;20120;-79
2023/05/23 10:52:03;;;;;;;3.30;1.75;;;23.60;72.50;;;;;;5037779;28;20028;-78
2023/05/23 10:54:55;;;;;;;3.22;1.33;;;23.90;73.90;;;;;;5040628;28;20052;-77
2023/05/23 10:57:26;;;;;;;2.67;1.40;;;24.00;71.10;;;;;;5017258;28;20033;-80
2023/05/23 10:59:52;;;;;;;2.50;1.40;;;24.20;70.80;;;;;;5023984;28;20037;-79
2023/05/23 11:02:25;;;;;;;3.78;1.60;;;24.10;69.10;;;;;;5052325;28;20032;-79
2023/05/23 11:05:30;;;;;;;3.17;1.85;;;24.10;67.70;;;;;;5018596;28;20144;-78
2023/05/23 11:08:12;;;;;;;3.20;1.50;;;24.10;67.50;;;;;;4985592;28;20061;-80
2023/05/23 11:11:00;;;;;;;2.57;1.33;;;24.20;67.70;;;;;;5016841;28;20076;-78
2023/05/23 11:13:52;;;;;;;2.97;1.33;;;24.40;68.20;;;;;;4986458;28;20993;-79
2023/05/23 11:16:29;;;;;;;2.25;1.23;;;24.70;67.20;;;;;;4994903;28;20691;-78
2023/05/23 11:19:24;;;;;;;2.75;1.30;;;24.90;65.00;;;;;;4997446;28;20244;-78
2023/05/23 11:22:00;;;;;;;3.92;1.40;;;24.80;63.80;;;;;;4996456;28;20072;-79
2023/05/23 11:24:51;;;;;;;2.43;1.13;;;24.70;63.00;;;;;;5004208;28;20520;-78
2023/05/23 11:27:27;;;;;;;2.83;1.30;;;24.50;63.30;;;;;;4938617;28;21617;-78
2023/05/23 11:29:56;;;;;;;2.97;1.20;;;24.40;64.70;;;;;;4916331;28;20038;-79
2023/05/23 11:32:22;;;;;;;3.25;1.35;;;24.30;64.10;;;;;;4956312;28;20476;-78
2023/05/23 11:34:48;;;;;;;4.13;1.50;;;24.20;64.40;;;;;;4959216;28;20068;-79
2023/05/23 11:37:16;;;;;;;3.97;1.30;;;24.10;64.00;;;;;;4963718;28;20336;-77
2023/05/23 11:39:42;;;;;;;4.55;1.33;;;24.10;64.80;;;;;;4982763;28;20413;-77
2023/05/23 11:42:08;;;;;;;3.50;1.50;;;24.30;66.10;;;;;;4957781;28;20360;-77
2023/05/23 11:44:34;;;;;;;3.53;1.43;;;24.50;67.20;;;;;;4934979;28;20083;-78
2023/05/23 11:47:01;;;;;;;6.03;1.67;;;24.80;68.10;;;;;;4992510;28;20507;-78
2023/05/23 11:49:29;;;;;;;4.13;1.50;;;25.20;66.80;;;;;;4978464;28;20506;-78
2023/05/23 11:51:56;;;;;;;4.80;1.60;;;25.50;64.70;;;;;;4993237;28;20120;-77
2023/05/23 11:54:26;;;;;;;3.92;1.60;;;25.70;63.20;;;;;;4992477;28;20072;-77
2023/05/23 11:56:53;;;;;;;3.83;1.60;;;25.80;62.50;;;;;;4981679;28;20049;-77
2023/05/23 11:59:20;;;;;;;4.25;1.75;;;25.90;61.80;;;;;;4934888;28;20450;-78
2023/05/23 12:01:46;;;;;;;4.72;1.60;;;25.90;60.50;;;;;;4992122;28;20145;-78
2023/05/23 12:04:11;;;;;;;4.43;1.60;;;25.80;60.00;;;;;;4995754;28;20265;-78
2023/05/23 12:06:41;;;;;;;2.57;1.60;;;25.80;60.50;;;;;;5034672;28;20049;-79
2023/05/23 12:09:11;;;;;;;4.40;1.70;;;25.80;60.20;;;;;;5032561;28;20075;-76
2023/05/23 12:11:39;;;;;;;4.07;1.70;;;25.90;61.20;;;;;;5023968;28;20025;-77
2023/05/23 12:14:06;;;;;;;3.92;1.52;;;26.00;60.00;;;;;;5012080;28;20222;-79
2023/05/23 12:16:33;;;;;;;4.43;1.70;;;26.10;59.10;;;;;;5008407;28;20062;-78
2023/05/23 12:19:00;;;;;;;5.00;1.73;;;26.10;58.50;;;;;;5031336;28;20044;-79
2023/05/23 12:21:38;;;;;;;4.85;1.80;;;25.90;56.30;;;;;;5040266;28;20031;-78
2023/05/23 12:24:30;;;;;;;4.32;1.63;;;25.70;56.40;;;;;;5038285;28;20229;-78
2023/05/23 12:27:02;;;;;;;3.25;1.50;;;25.50;56.70;;;;;;5022947;28;20774;-79
2023/05/23 12:29:30;;;;;;;3.33;1.42;;;25.40;56.80;;;;;;5005183;28;20021;-79
2023/05/23 12:31:58;;;;;;;3.33;1.30;;;25.40;58.10;;;;;;5007900;28;20043;-79
2023/05/23 12:34:24;;;;;;;4.05;1.30;;;25.40;58.20;;;;;;5038820;28;20032;-78
2023/05/23 12:36:57;;;;;;;3.50;1.45;;;25.50;57.70;;;;;;5040333;28;20722;-78
2023/05/23 12:39:27;;;;;;;5.20;1.70;;;25.60;57.00;;;;;;5040753;28;20284;-78
2023/05/23 12:41:57;;;;;;;4.95;1.70;;;25.60;56.30;;;;;;5029323;28;20513;-78
2023/05/23 12:44:28;;;;;;;4.93;1.60;;;25.70;57.20;;;;;;5038805;28;20190;-77
2023/05/23 12:46:54;;;;;;;4.80;1.58;;;25.80;57.90;;;;;;4993509;28;20025;-79
2023/05/23 12:49:20;;;;;;;3.58;1.50;;;25.80;57.40;;;;;;5044035;28;20577;-78
2023/05/23 12:51:46;;;;;;;3.67;1.52;;;25.90;57.00;;;;;;5041659;28;20226;-79